Almira, Washington
Current Conditions -  °F | °C
As of 10:53 AM on Saturday 25 Oct 2014 (Local Time) from KEPH Reporting Station
Broken Clouds Broken Clouds  
Wind Chill: 54°   Ceiling: 1900
Heat Index: 54°   Visibility: 10mi
Dew Point: 45°   Wind: 8mph
Humidity: 72%   Direction: 20°NNE
Pressure: 29.59"   Gusts: NA
Location:  47.71°N, 118.94°W
Report Text: KEPH 251753Z AUTO 02007KT 10SM BKN019 12/07 A2959 RMK AO2 SLP021 T01220072 10122 20083 58022
Loading
Personal Weather Stations






























Interactive Weather Map
Tropical Storm Tracking
New forecast layout! Learn more

10-Day Weather Forecast

Advertisements
Track Severe Weather on mobile